sensor_id;sensor_type;location;lat;lon;timestamp;P1;durP1;ratioP1;P2;durP2;ratioP2
26946;SDS011;14501;52.282;10.560;2022-08-14T00:01:07;9.00;;;7.22;;
26946;SDS011;14501;52.282;10.560;2022-08-14T00:03:33;9.13;;;7.38;;
26946;SDS011;14501;52.282;10.560;2022-08-14T00:05:59;9.50;;;7.53;;
26946;SDS011;14501;52.282;10.560;2022-08-14T00:08:26;11.02;;;7.65;;
26946;SDS011;14501;52.282;10.560;2022-08-14T00:10:52;9.25;;;7.07;;
26946;SDS011;14501;52.282;10.560;2022-08-14T00:13:19;8.57;;;7.35;;
26946;SDS011;14501;52.282;10.560;2022-08-14T00:15:47;8.13;;;7.32;;
26946;SDS011;14501;52.282;10.560;2022-08-14T00:18:18;9.70;;;7.50;;
26946;SDS011;14501;52.282;10.560;2022-08-14T00:20:45;7.65;;;6.95;;
26946;SDS011;14501;52.282;10.560;2022-08-14T00:23:12;8.73;;;7.82;;
26946;SDS011;14501;52.282;10.560;2022-08-14T00:25:38;10.90;;;7.53;;
26946;SDS011;14501;52.282;10.560;2022-08-14T00:28:06;8.95;;;7.60;;
26946;SDS011;14501;52.282;10.560;2022-08-14T00:30:34;11.02;;;7.60;;
26946;SDS011;14501;52.282;10.560;2022-08-14T00:33:00;9.70;;;7.22;;
26946;SDS011;14501;52.282;10.560;2022-08-14T00:35:26;8.70;;;7.72;;
26946;SDS011;14501;52.282;10.560;2022-08-14T00:37:52;9.85;;;7.55;;
26946;SDS011;14501;52.282;10.560;2022-08-14T00:40:18;12.70;;;7.78;;
26946;SDS011;14501;52.282;10.560;2022-08-14T00:42:45;9.88;;;8.02;;
26946;SDS011;14501;52.282;10.560;2022-08-14T00:45:12;9.32;;;7.78;;
26946;SDS011;14501;52.282;10.560;2022-08-14T00:47:40;11.32;;;7.72;;
26946;SDS011;14501;52.282;10.560;2022-08-14T00:50:08;8.30;;;7.50;;
26946;SDS011;14501;52.282;10.560;2022-08-14T00:52:35;8.52;;;7.70;;
26946;SDS011;14501;52.282;10.560;2022-08-14T00:55:02;9.73;;;7.95;;
26946;SDS011;14501;52.282;10.560;2022-08-14T00:57:30;10.55;;;8.05;;
26946;SDS011;14501;52.282;10.560;2022-08-14T00:59:58;13.60;;;8.43;;
26946;SDS011;14501;52.282;10.560;2022-08-14T01:02:27;8.45;;;7.60;;
26946;SDS011;14501;52.282;10.560;2022-08-14T01:04:56;9.63;;;8.23;;
26946;SDS011;14501;52.282;10.560;2022-08-14T01:07:23;8.73;;;7.90;;
26946;SDS011;14501;52.282;10.560;2022-08-14T01:09:51;12.48;;;7.88;;
26946;SDS011;14501;52.282;10.560;2022-08-14T01:12:19;10.02;;;7.80;;
26946;SDS011;14501;52.282;10.560;2022-08-14T01:14:46;11.00;;;8.52;;
26946;SDS011;14501;52.282;10.560;2022-08-14T01:17:15;12.68;;;8.73;;
26946;SDS011;14501;52.282;10.560;2022-08-14T01:19:41;11.73;;;8.25;;
26946;SDS011;14501;52.282;10.560;2022-08-14T01:22:25;9.13;;;7.90;;
26946;SDS011;14501;52.282;10.560;2022-08-14T01:24:51;8.90;;;8.05;;
26946;SDS011;14501;52.282;10.560;2022-08-14T01:27:18;9.60;;;8.38;;
26946;SDS011;14501;52.282;10.560;2022-08-14T01:29:45;9.43;;;8.45;;
26946;SDS011;14501;52.282;10.560;2022-08-14T01:32:12;10.05;;;8.43;;
26946;SDS011;14501;52.282;10.560;2022-08-14T01:34:38;8.98;;;8.13;;
26946;SDS011;14501;52.282;10.560;2022-08-14T01:37:03;9.88;;;8.10;;
26946;SDS011;14501;52.282;10.560;2022-08-14T01:39:31;11.88;;;8.27;;
26946;SDS011;14501;52.282;10.560;2022-08-14T01:41:56;9.05;;;7.82;;
26946;SDS011;14501;52.282;10.560;2022-08-14T01:44:25;8.48;;;7.63;;
26946;SDS011;14501;52.282;10.560;2022-08-14T01:46:55;10.23;;;8.60;;
26946;SDS011;14501;52.282;10.560;2022-08-14T01:49:22;8.65;;;7.70;;
26946;SDS011;14501;52.282;10.560;2022-08-14T01:51:49;8.68;;;7.65;;
26946;SDS011;14501;52.282;10.560;2022-08-14T01:54:20;9.38;;;7.65;;
26946;SDS011;14501;52.282;10.560;2022-08-14T01:56:51;8.50;;;7.57;;
26946;SDS011;14501;52.282;10.560;2022-08-14T01:59:21;9.03;;;8.10;;
26946;SDS011;14501;52.282;10.560;2022-08-14T02:01:56;8.60;;;7.80;;
26946;SDS011;14501;52.282;10.560;2022-08-14T02:04:24;8.77;;;7.80;;
26946;SDS011;14501;52.282;10.560;2022-08-14T02:06:52;8.85;;;7.82;;
26946;SDS011;14501;52.282;10.560;2022-08-14T02:09:18;9.10;;;8.15;;
26946;SDS011;14501;52.282;10.560;2022-08-14T02:11:45;9.85;;;7.68;;
26946;SDS011;14501;52.282;10.560;2022-08-14T02:14:12;11.38;;;7.82;;
26946;SDS011;14501;52.282;10.560;2022-08-14T02:16:39;8.82;;;7.93;;
26946;SDS011;14501;52.282;10.560;2022-08-14T02:19:08;9.77;;;8.43;;
26946;SDS011;14501;52.282;10.560;2022-08-14T02:21:35;9.07;;;7.88;;
26946;SDS011;14501;52.282;10.560;2022-08-14T02:24:03;8.45;;;7.72;;
26946;SDS011;14501;52.282;10.560;2022-08-14T02:26:30;11.98;;;8.25;;
26946;SDS011;14501;52.282;10.560;2022-08-14T02:29:05;11.75;;;8.15;;
26946;SDS011;14501;52.282;10.560;2022-08-14T02:31:33;9.23;;;8.02;;
26946;SDS011;14501;52.282;10.560;2022-08-14T02:34:05;8.80;;;7.63;;
26946;SDS011;14501;52.282;10.560;2022-08-14T02:36:35;9.50;;;8.50;;
26946;SDS011;14501;52.282;10.560;2022-08-14T02:39:01;10.02;;;7.82;;
26946;SDS011;14501;52.282;10.560;2022-08-14T02:41:30;9.15;;;7.88;;
26946;SDS011;14501;52.282;10.560;2022-08-14T02:43:56;8.63;;;7.32;;
26946;SDS011;14501;52.282;10.560;2022-08-14T02:46:22;8.40;;;7.60;;
26946;SDS011;14501;52.282;10.560;2022-08-14T02:48:47;8.70;;;7.80;;
26946;SDS011;14501;52.282;10.560;2022-08-14T02:51:13;8.90;;;7.88;;
26946;SDS011;14501;52.282;10.560;2022-08-14T02:53:41;9.48;;;8.43;;
26946;SDS011;14501;52.282;10.560;2022-08-14T02:56:10;9.20;;;8.30;;
26946;SDS011;14501;52.282;10.560;2022-08-14T02:58:40;8.82;;;8.02;;
26946;SDS011;14501;52.282;10.560;2022-08-14T03:01:11;10.55;;;7.60;;
26946;SDS011;14501;52.282;10.560;2022-08-14T03:03:39;11.45;;;8.25;;
26946;SDS011;14501;52.282;10.560;2022-08-14T03:06:06;10.52;;;8.07;;
26946;SDS011;14501;52.282;10.560;2022-08-14T03:08:35;13.10;;;8.70;;
26946;SDS011;14501;52.282;10.560;2022-08-14T03:11:05;9.90;;;8.90;;
26946;SDS011;14501;52.282;10.560;2022-08-14T03:13:33;11.20;;;9.35;;
26946;SDS011;14501;52.282;10.560;2022-08-14T03:16:08;9.27;;;8.38;;
26946;SDS011;14501;52.282;10.560;2022-08-14T03:18:36;10.35;;;9.30;;
26946;SDS011;14501;52.282;10.560;2022-08-14T03:21:10;10.43;;;9.43;;
26946;SDS011;14501;52.282;10.560;2022-08-14T03:23:41;12.98;;;10.10;;
26946;SDS011;14501;52.282;10.560;2022-08-14T03:26:10;10.55;;;9.15;;
26946;SDS011;14501;52.282;10.560;2022-08-14T03:28:41;11.52;;;9.43;;
26946;SDS011;14501;52.282;10.560;2022-08-14T03:31:09;10.50;;;9.40;;
26946;SDS011;14501;52.282;10.560;2022-08-14T03:33:36;9.90;;;8.90;;
26946;SDS011;14501;52.282;10.560;2022-08-14T03:36:05;13.95;;;9.45;;
26946;SDS011;14501;52.282;10.560;2022-08-14T03:38:36;10.63;;;8.95;;
26946;SDS011;14501;52.282;10.560;2022-08-14T03:41:10;10.73;;;9.13;;
26946;SDS011;14501;52.282;10.560;2022-08-14T03:43:41;10.48;;;9.48;;
26946;SDS011;14501;52.282;10.560;2022-08-14T03:46:08;11.68;;;9.40;;
26946;SDS011;14501;52.282;10.560;2022-08-14T03:48:35;10.88;;;9.15;;
26946;SDS011;14501;52.282;10.560;2022-08-14T03:51:04;13.20;;;9.20;;
26946;SDS011;14501;52.282;10.560;2022-08-14T03:53:32;11.32;;;8.95;;
26946;SDS011;14501;52.282;10.560;2022-08-14T03:56:00;11.50;;;9.50;;
26946;SDS011;14501;52.282;10.560;2022-08-14T03:58:26;10.98;;;9.88;;
26946;SDS011;14501;52.282;10.560;2022-08-14T04:00:53;16.23;;;9.90;;
26946;SDS011;14501;52.282;10.560;2022-08-14T04:03:18;10.20;;;9.20;;
26946;SDS011;14501;52.282;10.560;2022-08-14T04:05:45;11.07;;;9.15;;
26946;SDS011;14501;52.282;10.560;2022-08-14T04:08:11;10.07;;;8.90;;
26946;SDS011;14501;52.282;10.560;2022-08-14T04:10:36;13.00;;;9.50;;
26946;SDS011;14501;52.282;10.560;2022-08-14T04:13:03;10.48;;;9.45;;
26946;SDS011;14501;52.282;10.560;2022-08-14T04:15:33;9.50;;;8.60;;
26946;SDS011;14501;52.282;10.560;2022-08-14T04:18:06;12.25;;;9.35;;
26946;SDS011;14501;52.282;10.560;2022-08-14T04:20:33;11.38;;;9.48;;
26946;SDS011;14501;52.282;10.560;2022-08-14T04:22:59;13.77;;;9.70;;
26946;SDS011;14501;52.282;10.560;2022-08-14T04:25:25;11.60;;;9.35;;
26946;SDS011;14501;52.282;10.560;2022-08-14T04:27:51;10.32;;;9.32;;
26946;SDS011;14501;52.282;10.560;2022-08-14T04:30:18;10.90;;;9.55;;
26946;SDS011;14501;52.282;10.560;2022-08-14T04:32:44;11.18;;;10.02;;
26946;SDS011;14501;52.282;10.560;2022-08-14T04:35:10;11.05;;;9.90;;
26946;SDS011;14501;52.282;10.560;2022-08-14T04:37:36;10.80;;;9.63;;
26946;SDS011;14501;52.282;10.560;2022-08-14T04:40:20;12.82;;;10.65;;
26946;SDS011;14501;52.282;10.560;2022-08-14T04:43:04;12.70;;;9.98;;
26946;SDS011;14501;52.282;10.560;2022-08-14T04:45:48;14.73;;;10.68;;
26946;SDS011;14501;52.282;10.560;2022-08-14T04:48:15;12.05;;;10.70;;
26946;SDS011;14501;52.282;10.560;2022-08-14T04:50:46;13.75;;;10.80;;
26946;SDS011;14501;52.282;10.560;2022-08-14T04:53:13;13.05;;;11.75;;
26946;SDS011;14501;52.282;10.560;2022-08-14T04:55:42;11.80;;;10.50;;
26946;SDS011;14501;52.282;10.560;2022-08-14T04:58:12;12.73;;;11.27;;
26946;SDS011;14501;52.282;10.560;2022-08-14T05:00:39;11.77;;;10.63;;
26946;SDS011;14501;52.282;10.560;2022-08-14T05:03:06;11.65;;;10.27;;
26946;SDS011;14501;52.282;10.560;2022-08-14T05:05:32;11.48;;;9.50;;
26946;SDS011;14501;52.282;10.560;2022-08-14T05:08:05;12.63;;;11.40;;
26946;SDS011;14501;52.282;10.560;2022-08-14T05:10:37;11.88;;;10.65;;
26946;SDS011;14501;52.282;10.560;2022-08-14T05:13:05;11.77;;;9.63;;
26946;SDS011;14501;52.282;10.560;2022-08-14T05:15:32;11.30;;;10.10;;
26946;SDS011;14501;52.282;10.560;2022-08-14T05:18:06;11.27;;;10.18;;
26946;SDS011;14501;52.282;10.560;2022-08-14T05:20:37;12.85;;;9.43;;
26946;SDS011;14501;52.282;10.560;2022-08-14T05:23:05;9.82;;;8.82;;
26946;SDS011;14501;52.282;10.560;2022-08-14T05:25:32;10.15;;;8.50;;
26946;SDS011;14501;52.282;10.560;2022-08-14T05:28:06;9.85;;;8.95;;
26946;SDS011;14501;52.282;10.560;2022-08-14T05:30:37;10.95;;;8.05;;
26946;SDS011;14501;52.282;10.560;2022-08-14T05:33:03;9.10;;;8.20;;
26946;SDS011;14501;52.282;10.560;2022-08-14T05:35:30;13.32;;;8.68;;
26946;SDS011;14501;52.282;10.560;2022-08-14T05:37:57;11.40;;;7.57;;
26946;SDS011;14501;52.282;10.560;2022-08-14T05:40:23;8.32;;;7.55;;
26946;SDS011;14501;52.282;10.560;2022-08-14T05:42:49;10.57;;;7.50;;
26946;SDS011;14501;52.282;10.560;2022-08-14T05:45:15;8.70;;;7.47;;
26946;SDS011;14501;52.282;10.560;2022-08-14T05:47:41;9.10;;;7.80;;
26946;SDS011;14501;52.282;10.560;2022-08-14T05:50:11;8.20;;;7.18;;
26946;SDS011;14501;52.282;10.560;2022-08-14T05:52:38;8.73;;;7.70;;
26946;SDS011;14501;52.282;10.560;2022-08-14T05:55:04;8.57;;;7.35;;
26946;SDS011;14501;52.282;10.560;2022-08-14T05:57:32;10.63;;;7.53;;
26946;SDS011;14501;52.282;10.560;2022-08-14T05:59:57;8.95;;;7.40;;
26946;SDS011;14501;52.282;10.560;2022-08-14T06:02:23;8.20;;;7.32;;
26946;SDS011;14501;52.282;10.560;2022-08-14T06:04:49;8.07;;;6.65;;
26946;SDS011;14501;52.282;10.560;2022-08-14T06:07:14;7.45;;;6.72;;
26946;SDS011;14501;52.282;10.560;2022-08-14T06:09:40;8.10;;;6.65;;
26946;SDS011;14501;52.282;10.560;2022-08-14T06:12:07;6.78;;;6.03;;
26946;SDS011;14501;52.282;10.560;2022-08-14T06:14:33;7.25;;;5.07;;
26946;SDS011;14501;52.282;10.560;2022-08-14T06:16:58;5.95;;;5.20;;
26946;SDS011;14501;52.282;10.560;2022-08-14T06:19:24;5.82;;;4.95;;
26946;SDS011;14501;52.282;10.560;2022-08-14T06:21:50;6.63;;;5.22;;
26946;SDS011;14501;52.282;10.560;2022-08-14T06:24:16;6.30;;;4.82;;
26946;SDS011;14501;52.282;10.560;2022-08-14T06:26:43;6.68;;;5.28;;
26946;SDS011;14501;52.282;10.560;2022-08-14T06:29:09;5.38;;;4.78;;
26946;SDS011;14501;52.282;10.560;2022-08-14T06:31:35;6.25;;;5.20;;
26946;SDS011;14501;52.282;10.560;2022-08-14T06:34:01;6.38;;;5.18;;
26946;SDS011;14501;52.282;10.560;2022-08-14T06:36:27;5.78;;;4.90;;
26946;SDS011;14501;52.282;10.560;2022-08-14T06:38:53;5.10;;;4.70;;
26946;SDS011;14501;52.282;10.560;2022-08-14T06:41:19;4.97;;;4.40;;
26946;SDS011;14501;52.282;10.560;2022-08-14T06:43:47;7.45;;;4.80;;
26946;SDS011;14501;52.282;10.560;2022-08-14T06:46:13;5.07;;;4.68;;
26946;SDS011;14501;52.282;10.560;2022-08-14T06:48:38;4.88;;;4.47;;
26946;SDS011;14501;52.282;10.560;2022-08-14T06:51:04;6.20;;;5.32;;
26946;SDS011;14501;52.282;10.560;2022-08-14T06:53:30;6.97;;;5.05;;
26946;SDS011;14501;52.282;10.560;2022-08-14T06:55:55;5.18;;;4.50;;
26946;SDS011;14501;52.282;10.560;2022-08-14T06:58:21;5.38;;;4.88;;
26946;SDS011;14501;52.282;10.560;2022-08-14T07:00:47;4.82;;;4.43;;
26946;SDS011;14501;52.282;10.560;2022-08-14T07:03:32;7.03;;;4.82;;
26946;SDS011;14501;52.282;10.560;2022-08-14T07:06:16;5.20;;;4.45;;
26946;SDS011;14501;52.282;10.560;2022-08-14T07:08:42;6.65;;;4.70;;
26946;SDS011;14501;52.282;10.560;2022-08-14T07:11:09;5.93;;;5.07;;
26946;SDS011;14501;52.282;10.560;2022-08-14T07:13:35;6.55;;;4.90;;
26946;SDS011;14501;52.282;10.560;2022-08-14T07:16:02;8.07;;;4.93;;
26946;SDS011;14501;52.282;10.560;2022-08-14T07:18:29;6.85;;;5.15;;
26946;SDS011;14501;52.282;10.560;2022-08-14T07:20:56;7.22;;;5.47;;
26946;SDS011;14501;52.282;10.560;2022-08-14T07:23:24;5.68;;;5.15;;
26946;SDS011;14501;52.282;10.560;2022-08-14T07:25:51;5.75;;;5.15;;
26946;SDS011;14501;52.282;10.560;2022-08-14T07:30:52;6.30;;;5.50;;
26946;SDS011;14501;52.282;10.560;2022-08-14T07:33:21;5.60;;;5.10;;
26946;SDS011;14501;52.282;10.560;2022-08-14T07:35:48;5.90;;;5.38;;
26946;SDS011;14501;52.282;10.560;2022-08-14T07:38:18;5.95;;;5.45;;
26946;SDS011;14501;52.282;10.560;2022-08-14T07:40:45;10.00;;;5.95;;
26946;SDS011;14501;52.282;10.560;2022-08-14T07:43:12;5.40;;;4.90;;
26946;SDS011;14501;52.282;10.560;2022-08-14T07:45:38;6.63;;;5.35;;
26946;SDS011;14501;52.282;10.560;2022-08-14T07:48:05;6.03;;;5.40;;
26946;SDS011;14501;52.282;10.560;2022-08-14T07:50:31;6.03;;;5.43;;
26946;SDS011;14501;52.282;10.560;2022-08-14T07:52:57;8.93;;;6.00;;
26946;SDS011;14501;52.282;10.560;2022-08-14T07:55:24;7.03;;;5.35;;
26946;SDS011;14501;52.282;10.560;2022-08-14T07:57:50;5.68;;;5.18;;
26946;SDS011;14501;52.282;10.560;2022-08-14T08:00:20;7.28;;;5.63;;
26946;SDS011;14501;52.282;10.560;2022-08-14T08:02:47;6.78;;;6.18;;
26946;SDS011;14501;52.282;10.560;2022-08-14T08:05:16;7.47;;;5.63;;
26946;SDS011;14501;52.282;10.560;2022-08-14T08:07:43;6.20;;;5.70;;
26946;SDS011;14501;52.282;10.560;2022-08-14T08:10:12;7.00;;;5.65;;
26946;SDS011;14501;52.282;10.560;2022-08-14T08:13:05;7.53;;;5.65;;
26946;SDS011;14501;52.282;10.560;2022-08-14T08:15:38;6.40;;;5.80;;
26946;SDS011;14501;52.282;10.560;2022-08-14T08:18:06;6.30;;;5.72;;
26946;SDS011;14501;52.282;10.560;2022-08-14T08:20:35;10.13;;;6.25;;
26946;SDS011;14501;52.282;10.560;2022-08-14T08:23:04;7.22;;;5.68;;
26946;SDS011;14501;52.282;10.560;2022-08-14T08:25:32;6.28;;;5.70;;
26946;SDS011;14501;52.282;10.560;2022-08-14T08:28:02;8.10;;;5.95;;
26946;SDS011;14501;52.282;10.560;2022-08-14T08:30:32;7.97;;;5.10;;
26946;SDS011;14501;52.282;10.560;2022-08-14T08:33:00;6.93;;;6.10;;
26946;SDS011;14501;52.282;10.560;2022-08-14T08:35:27;7.13;;;5.65;;
26946;SDS011;14501;52.282;10.560;2022-08-14T08:37:59;6.30;;;5.70;;
26946;SDS011;14501;52.282;10.560;2022-08-14T08:40:28;7.05;;;5.97;;
26946;SDS011;14501;52.282;10.560;2022-08-14T08:43:05;8.27;;;6.07;;
26946;SDS011;14501;52.282;10.560;2022-08-14T08:45:35;6.90;;;6.30;;
26946;SDS011;14501;52.282;10.560;2022-08-14T08:48:01;8.38;;;6.70;;
26946;SDS011;14501;52.282;10.560;2022-08-14T08:50:35;9.98;;;6.60;;
26946;SDS011;14501;52.282;10.560;2022-08-14T08:53:04;7.53;;;6.80;;
26946;SDS011;14501;52.282;10.560;2022-08-14T08:55:36;8.60;;;6.30;;
26946;SDS011;14501;52.282;10.560;2022-08-14T08:58:06;6.95;;;6.30;;
26946;SDS011;14501;52.282;10.560;2022-08-14T09:00:34;8.30;;;7.05;;
26946;SDS011;14501;52.282;10.560;2022-08-14T09:03:03;7.45;;;6.63;;
26946;SDS011;14501;52.282;10.560;2022-08-14T09:05:33;6.53;;;5.93;;
26946;SDS011;14501;52.282;10.560;2022-08-14T09:08:14;6.85;;;6.10;;
26946;SDS011;14501;52.282;10.560;2022-08-14T09:10:41;7.35;;;6.63;;
26946;SDS011;14501;52.282;10.560;2022-08-14T09:13:08;6.15;;;5.43;;
26946;SDS011;14501;52.282;10.560;2022-08-14T09:15:37;6.85;;;6.25;;
26946;SDS011;14501;52.282;10.560;2022-08-14T09:18:04;8.55;;;6.50;;
26946;SDS011;14501;52.282;10.560;2022-08-14T09:20:31;6.88;;;6.05;;
26946;SDS011;14501;52.282;10.560;2022-08-14T09:22:57;7.78;;;6.18;;
26946;SDS011;14501;52.282;10.560;2022-08-14T09:25:23;6.88;;;6.18;;
26946;SDS011;14501;52.282;10.560;2022-08-14T09:27:49;7.15;;;6.20;;
26946;SDS011;14501;52.282;10.560;2022-08-14T09:30:15;6.93;;;6.30;;
26946;SDS011;14501;52.282;10.560;2022-08-14T09:32:55;8.02;;;6.13;;
26946;SDS011;14501;52.282;10.560;2022-08-14T09:35:31;8.73;;;6.63;;
26946;SDS011;14501;52.282;10.560;2022-08-14T09:41:17;7.30;;;6.60;;
26946;SDS011;14501;52.282;10.560;2022-08-14T09:47:01;8.25;;;6.97;;
26946;SDS011;14501;52.282;10.560;2022-08-14T09:49:30;7.38;;;6.60;;
26946;SDS011;14501;52.282;10.560;2022-08-14T09:52:04;7.65;;;6.68;;
26946;SDS011;14501;52.282;10.560;2022-08-14T09:54:38;7.90;;;6.63;;
26946;SDS011;14501;52.282;10.560;2022-08-14T09:57:09;6.47;;;5.90;;
26946;SDS011;14501;52.282;10.560;2022-08-14T09:59:46;6.97;;;6.38;;
26946;SDS011;14501;52.282;10.560;2022-08-14T10:02:24;9.00;;;6.60;;
26946;SDS011;14501;52.282;10.560;2022-08-14T10:07:55;7.07;;;6.40;;
26946;SDS011;14501;52.282;10.560;2022-08-14T10:12:56;7.63;;;6.72;;
26946;SDS011;14501;52.282;10.560;2022-08-14T10:15:23;10.05;;;6.75;;
26946;SDS011;14501;52.282;10.560;2022-08-14T10:20:37;9.70;;;6.25;;
26946;SDS011;14501;52.282;10.560;2022-08-14T10:23:15;8.88;;;6.82;;
26946;SDS011;14501;52.282;10.560;2022-08-14T10:25:47;7.20;;;6.50;;
26946;SDS011;14501;52.282;10.560;2022-08-14T10:30:47;10.05;;;6.40;;
26946;SDS011;14501;52.282;10.560;2022-08-14T10:33:27;8.82;;;6.68;;
26946;SDS011;14501;52.282;10.560;2022-08-14T10:35:58;6.88;;;6.18;;
26946;SDS011;14501;52.282;10.560;2022-08-14T10:38:33;7.80;;;6.72;;
26946;SDS011;14501;52.282;10.560;2022-08-14T10:43:36;7.55;;;6.22;;
26946;SDS011;14501;52.282;10.560;2022-08-14T10:46:10;8.38;;;6.10;;
26946;SDS011;14501;52.282;10.560;2022-08-14T10:48:40;9.48;;;6.25;;
26946;SDS011;14501;52.282;10.560;2022-08-14T10:51:08;8.05;;;6.70;;
26946;SDS011;14501;52.282;10.560;2022-08-14T10:53:34;7.80;;;7.00;;
26946;SDS011;14501;52.282;10.560;2022-08-14T10:56:03;7.47;;;6.78;;
26946;SDS011;14501;52.282;10.560;2022-08-14T10:58:35;8.70;;;6.78;;
26946;SDS011;14501;52.282;10.560;2022-08-14T11:01:01;13.32;;;7.47;;
26946;SDS011;14501;52.282;10.560;2022-08-14T11:03:36;8.77;;;6.82;;
26946;SDS011;14501;52.282;10.560;2022-08-14T11:06:14;8.35;;;7.45;;
26946;SDS011;14501;52.282;10.560;2022-08-14T11:08:44;7.72;;;7.03;;
26946;SDS011;14501;52.282;10.560;2022-08-14T11:11:11;8.50;;;7.40;;
26946;SDS011;14501;52.282;10.560;2022-08-14T11:13:39;10.63;;;7.18;;
26946;SDS011;14501;52.282;10.560;2022-08-14T11:16:08;8.60;;;6.93;;
26946;SDS011;14501;52.282;10.560;2022-08-14T11:18:35;10.27;;;7.72;;
26946;SDS011;14501;52.282;10.560;2022-08-14T11:21:01;9.15;;;7.38;;
26946;SDS011;14501;52.282;10.560;2022-08-14T11:23:37;8.43;;;7.43;;
26946;SDS011;14501;52.282;10.560;2022-08-14T11:26:03;10.55;;;7.00;;
26946;SDS011;14501;52.282;10.560;2022-08-14T11:28:36;10.68;;;7.18;;
26946;SDS011;14501;52.282;10.560;2022-08-14T11:31:04;9.20;;;7.22;;
26946;SDS011;14501;52.282;10.560;2022-08-14T11:33:32;10.50;;;7.60;;
26946;SDS011;14501;52.282;10.560;2022-08-14T11:36:01;9.50;;;7.10;;
26946;SDS011;14501;52.282;10.560;2022-08-14T11:38:36;8.57;;;7.10;;
26946;SDS011;14501;52.282;10.560;2022-08-14T11:41:10;9.20;;;7.20;;
26946;SDS011;14501;52.282;10.560;2022-08-14T11:43:38;8.65;;;7.13;;
26946;SDS011;14501;52.282;10.560;2022-08-14T11:46:07;8.95;;;6.93;;
26946;SDS011;14501;52.282;10.560;2022-08-14T11:48:43;8.00;;;6.85;;
26946;SDS011;14501;52.282;10.560;2022-08-14T11:51:15;15.55;;;7.70;;
26946;SDS011;14501;52.282;10.560;2022-08-14T11:53:51;8.02;;;7.20;;
26946;SDS011;14501;52.282;10.560;2022-08-14T11:56:18;10.35;;;7.82;;
26946;SDS011;14501;52.282;10.560;2022-08-14T11:58:48;8.23;;;6.55;;
26946;SDS011;14501;52.282;10.560;2022-08-14T12:01:17;7.85;;;6.57;;
26946;SDS011;14501;52.282;10.560;2022-08-14T12:03:52;7.30;;;6.65;;
26946;SDS011;14501;52.282;10.560;2022-08-14T12:06:19;8.70;;;7.10;;
26946;SDS011;14501;52.282;10.560;2022-08-14T12:08:45;7.90;;;6.93;;
26946;SDS011;14501;52.282;10.560;2022-08-14T12:11:14;10.95;;;6.75;;
26946;SDS011;14501;52.282;10.560;2022-08-14T12:13:41;9.05;;;7.05;;
26946;SDS011;14501;52.282;10.560;2022-08-14T12:16:08;8.70;;;7.80;;
26946;SDS011;14501;52.282;10.560;2022-08-14T12:18:36;7.72;;;7.03;;
26946;SDS011;14501;52.282;10.560;2022-08-14T12:21:22;9.60;;;7.47;;
26946;SDS011;14501;52.282;10.560;2022-08-14T12:23:59;10.10;;;7.03;;
26946;SDS011;14501;52.282;10.560;2022-08-14T12:26:26;8.95;;;7.47;;
26946;SDS011;14501;52.282;10.560;2022-08-14T12:29:13;9.48;;;7.43;;
26946;SDS011;14501;52.282;10.560;2022-08-14T12:31:41;8.07;;;7.00;;
26946;SDS011;14501;52.282;10.560;2022-08-14T12:34:08;8.15;;;7.15;;
26946;SDS011;14501;52.282;10.560;2022-08-14T12:36:37;8.05;;;6.80;;
26946;SDS011;14501;52.282;10.560;2022-08-14T12:39:03;8.20;;;7.35;;
26946;SDS011;14501;52.282;10.560;2022-08-14T12:41:47;7.45;;;6.75;;
26946;SDS011;14501;52.282;10.560;2022-08-14T12:44:29;8.70;;;6.15;;
26946;SDS011;14501;52.282;10.560;2022-08-14T12:47:04;8.10;;;6.55;;
26946;SDS011;14501;52.282;10.560;2022-08-14T12:49:36;8.18;;;6.05;;
26946;SDS011;14501;52.282;10.560;2022-08-14T12:52:03;7.03;;;6.32;;
26946;SDS011;14501;52.282;10.560;2022-08-14T12:54:31;11.65;;;6.50;;
26946;SDS011;14501;52.282;10.560;2022-08-14T12:57:09;11.57;;;6.70;;
26946;SDS011;14501;52.282;10.560;2022-08-14T12:59:37;8.13;;;6.72;;
26946;SDS011;14501;52.282;10.560;2022-08-14T13:02:03;8.80;;;6.85;;
26946;SDS011;14501;52.282;10.560;2022-08-14T13:04:30;7.93;;;7.03;;
26946;SDS011;14501;52.282;10.560;2022-08-14T13:06:59;9.23;;;6.82;;
26946;SDS011;14501;52.282;10.560;2022-08-14T13:09:32;9.50;;;6.60;;
26946;SDS011;14501;52.282;10.560;2022-08-14T13:11:59;8.75;;;7.20;;
26946;SDS011;14501;52.282;10.560;2022-08-14T13:14:29;12.75;;;7.18;;
26946;SDS011;14501;52.282;10.560;2022-08-14T13:16:57;10.20;;;6.80;;
26946;SDS011;14501;52.282;10.560;2022-08-14T13:19:27;7.72;;;5.78;;
26946;SDS011;14501;52.282;10.560;2022-08-14T13:21:54;8.63;;;6.55;;
26946;SDS011;14501;52.282;10.560;2022-08-14T13:24:21;7.85;;;6.72;;
26946;SDS011;14501;52.282;10.560;2022-08-14T13:26:48;8.43;;;6.53;;
26946;SDS011;14501;52.282;10.560;2022-08-14T13:29:19;7.63;;;6.55;;
26946;SDS011;14501;52.282;10.560;2022-08-14T13:31:50;7.60;;;6.90;;
26946;SDS011;14501;52.282;10.560;2022-08-14T13:34:21;8.50;;;6.90;;
26946;SDS011;14501;52.282;10.560;2022-08-14T13:36:49;6.65;;;6.03;;
26946;SDS011;14501;52.282;10.560;2022-08-14T13:39:16;7.20;;;6.47;;
26946;SDS011;14501;52.282;10.560;2022-08-14T13:41:43;7.50;;;6.78;;
26946;SDS011;14501;52.282;10.560;2022-08-14T13:44:11;7.03;;;6.13;;
26946;SDS011;14501;52.282;10.560;2022-08-14T13:46:39;8.48;;;6.72;;
26946;SDS011;14501;52.282;10.560;2022-08-14T13:49:10;7.25;;;6.55;;
26946;SDS011;14501;52.282;10.560;2022-08-14T13:51:38;9.10;;;7.03;;
26946;SDS011;14501;52.282;10.560;2022-08-14T13:54:07;8.65;;;7.55;;
26946;SDS011;14501;52.282;10.560;2022-08-14T13:56:36;9.82;;;7.07;;
26946;SDS011;14501;52.282;10.560;2022-08-14T13:59:04;11.35;;;7.53;;
26946;SDS011;14501;52.282;10.560;2022-08-14T14:01:30;9.48;;;7.15;;
26946;SDS011;14501;52.282;10.560;2022-08-14T14:03:58;9.60;;;7.38;;
26946;SDS011;14501;52.282;10.560;2022-08-14T14:06:25;9.82;;;7.65;;
26946;SDS011;14501;52.282;10.560;2022-08-14T14:08:53;8.25;;;6.78;;
26946;SDS011;14501;52.282;10.560;2022-08-14T14:11:20;10.30;;;7.63;;
26946;SDS011;14501;52.282;10.560;2022-08-14T14:13:52;10.95;;;7.82;;
26946;SDS011;14501;52.282;10.560;2022-08-14T14:16:19;8.48;;;7.20;;
26946;SDS011;14501;52.282;10.560;2022-08-14T14:18:49;8.23;;;7.43;;
26946;SDS011;14501;52.282;10.560;2022-08-14T14:21:20;10.85;;;7.55;;
26946;SDS011;14501;52.282;10.560;2022-08-14T14:23:48;10.27;;;7.90;;
26946;SDS011;14501;52.282;10.560;2022-08-14T14:26:16;8.07;;;7.28;;
26946;SDS011;14501;52.282;10.560;2022-08-14T14:28:45;8.65;;;7.30;;
26946;SDS011;14501;52.282;10.560;2022-08-14T14:31:22;8.73;;;6.95;;
26946;SDS011;14501;52.282;10.560;2022-08-14T14:33:50;7.55;;;6.85;;
26946;SDS011;14501;52.282;10.560;2022-08-14T14:36:20;7.85;;;7.03;;
26946;SDS011;14501;52.282;10.560;2022-08-14T14:38:50;13.00;;;6.95;;
26946;SDS011;14501;52.282;10.560;2022-08-14T14:41:18;9.15;;;7.03;;
26946;SDS011;14501;52.282;10.560;2022-08-14T14:43:47;7.80;;;6.97;;
26946;SDS011;14501;52.282;10.560;2022-08-14T14:46:14;7.72;;;6.93;;
26946;SDS011;14501;52.282;10.560;2022-08-14T14:48:45;7.95;;;7.15;;
26946;SDS011;14501;52.282;10.560;2022-08-14T14:51:11;11.43;;;7.18;;
26946;SDS011;14501;52.282;10.560;2022-08-14T14:53:41;7.68;;;6.90;;
26946;SDS011;14501;52.282;10.560;2022-08-14T14:56:08;9.55;;;7.03;;
26946;SDS011;14501;52.282;10.560;2022-08-14T14:58:34;11.38;;;6.72;;
26946;SDS011;14501;52.282;10.560;2022-08-14T15:01:02;8.43;;;7.20;;
26946;SDS011;14501;52.282;10.560;2022-08-14T15:03:29;9.90;;;6.82;;